sensor_id;sensor_type;location;lat;lon;timestamp;P1;durP1;ratioP1;P2;durP2;ratioP2
75772;SDS011;64381;0.000;0.000;2023-07-13T00:00:36;4.10;;;1.93;;
75772;SDS011;64381;0.000;0.000;2023-07-13T00:03:02;3.83;;;2.00;;
75772;SDS011;64381;0.000;0.000;2023-07-13T00:05:28;3.70;;;1.85;;
75772;SDS011;64381;0.000;0.000;2023-07-13T00:07:53;3.77;;;2.00;;
75772;SDS011;64381;0.000;0.000;2023-07-13T00:10:19;4.17;;;2.00;;
75772;SDS011;64381;0.000;0.000;2023-07-13T00:12:44;4.27;;;2.00;;
75772;SDS011;64381;0.000;0.000;2023-07-13T00:15:13;3.90;;;2.00;;
75772;SDS011;64381;0.000;0.000;2023-07-13T00:17:42;4.25;;;1.98;;
75772;SDS011;64381;0.000;0.000;2023-07-13T00:20:07;3.83;;;1.80;;
75772;SDS011;64381;0.000;0.000;2023-07-13T00:22:34;4.43;;;1.90;;
75772;SDS011;64381;0.000;0.000;2023-07-13T00:24:59;3.80;;;1.83;;
75772;SDS011;64381;0.000;0.000;2023-07-13T00:27:24;3.47;;;1.80;;
75772;SDS011;64381;0.000;0.000;2023-07-13T00:29:50;3.72;;;1.90;;
75772;SDS011;64381;0.000;0.000;2023-07-13T00:32:15;4.60;;;1.90;;
75772;SDS011;64381;0.000;0.000;2023-07-13T00:34:40;3.63;;;1.80;;
75772;SDS011;64381;0.000;0.000;2023-07-13T00:37:06;4.00;;;2.00;;
75772;SDS011;64381;0.000;0.000;2023-07-13T00:39:32;3.73;;;2.07;;
75772;SDS011;64381;0.000;0.000;2023-07-13T00:41:58;4.88;;;2.10;;
75772;SDS011;64381;0.000;0.000;2023-07-13T00:44:23;4.17;;;2.00;;
75772;SDS011;64381;0.000;0.000;2023-07-13T00:46:49;3.60;;;1.80;;
75772;SDS011;64381;0.000;0.000;2023-07-13T00:49:15;5.00;;;1.90;;
75772;SDS011;64381;0.000;0.000;2023-07-13T00:54:21;4.00;;;2.05;;
75772;SDS011;64381;0.000;0.000;2023-07-13T00:56:50;3.40;;;1.70;;
75772;SDS011;64381;0.000;0.000;2023-07-13T00:59:17;3.95;;;1.80;;
75772;SDS011;64381;0.000;0.000;2023-07-13T01:01:44;3.13;;;1.63;;
75772;SDS011;64381;0.000;0.000;2023-07-13T01:04:10;3.30;;;1.73;;
75772;SDS011;64381;0.000;0.000;2023-07-13T01:06:36;4.43;;;2.00;;
75772;SDS011;64381;0.000;0.000;2023-07-13T01:09:02;3.70;;;1.70;;
75772;SDS011;64381;0.000;0.000;2023-07-13T01:11:28;4.70;;;1.90;;
75772;SDS011;64381;0.000;0.000;2023-07-13T01:13:54;3.80;;;1.90;;
75772;SDS011;64381;0.000;0.000;2023-07-13T01:16:22;3.50;;;1.70;;
75772;SDS011;64381;0.000;0.000;2023-07-13T01:18:50;3.83;;;1.70;;
75772;SDS011;64381;0.000;0.000;2023-07-13T01:21:15;4.23;;;1.77;;
75772;SDS011;64381;0.000;0.000;2023-07-13T01:23:40;3.70;;;2.00;;
75772;SDS011;64381;0.000;0.000;2023-07-13T01:26:06;4.03;;;1.93;;
75772;SDS011;64381;0.000;0.000;2023-07-13T01:28:31;3.43;;;1.70;;
75772;SDS011;64381;0.000;0.000;2023-07-13T01:30:57;3.17;;;1.73;;
75772;SDS011;64381;0.000;0.000;2023-07-13T01:33:23;3.67;;;1.70;;
75772;SDS011;64381;0.000;0.000;2023-07-13T01:35:49;3.63;;;1.60;;
75772;SDS011;64381;0.000;0.000;2023-07-13T01:38:16;3.33;;;1.63;;
75772;SDS011;64381;0.000;0.000;2023-07-13T01:40:44;3.83;;;2.00;;
75772;SDS011;64381;0.000;0.000;2023-07-13T01:43:09;4.23;;;1.90;;
75772;SDS011;64381;0.000;0.000;2023-07-13T01:45:35;3.65;;;1.65;;
75772;SDS011;64381;0.000;0.000;2023-07-13T01:48:00;3.40;;;1.80;;
75772;SDS011;64381;0.000;0.000;2023-07-13T01:50:25;3.50;;;1.80;;
75772;SDS011;64381;0.000;0.000;2023-07-13T01:52:51;3.50;;;1.60;;
75772;SDS011;64381;0.000;0.000;2023-07-13T01:55:16;3.60;;;1.80;;
75772;SDS011;64381;0.000;0.000;2023-07-13T01:57:42;3.50;;;1.80;;
75772;SDS011;64381;0.000;0.000;2023-07-13T02:00:08;3.33;;;1.77;;
75772;SDS011;64381;0.000;0.000;2023-07-13T02:02:35;3.60;;;1.80;;
75772;SDS011;64381;0.000;0.000;2023-07-13T02:05:00;3.03;;;1.57;;
75772;SDS011;64381;0.000;0.000;2023-07-13T02:07:25;3.67;;;1.87;;
75772;SDS011;64381;0.000;0.000;2023-07-13T02:09:51;3.10;;;1.40;;
75772;SDS011;64381;0.000;0.000;2023-07-13T02:12:16;3.97;;;1.90;;
75772;SDS011;64381;0.000;0.000;2023-07-13T02:14:41;3.80;;;1.80;;
75772;SDS011;64381;0.000;0.000;2023-07-13T02:17:06;3.63;;;1.70;;
75772;SDS011;64381;0.000;0.000;2023-07-13T02:19:32;3.80;;;1.80;;
75772;SDS011;64381;0.000;0.000;2023-07-13T02:21:57;3.93;;;1.90;;
75772;SDS011;64381;0.000;0.000;2023-07-13T02:24:23;3.37;;;1.93;;
75772;SDS011;64381;0.000;0.000;2023-07-13T02:26:48;3.80;;;2.20;;
75772;SDS011;64381;0.000;0.000;2023-07-13T02:29:13;3.60;;;1.50;;
75772;SDS011;64381;0.000;0.000;2023-07-13T02:31:39;4.25;;;1.90;;
75772;SDS011;64381;0.000;0.000;2023-07-13T02:34:04;3.23;;;1.60;;
75772;SDS011;64381;0.000;0.000;2023-07-13T02:36:30;3.20;;;1.70;;
75772;SDS011;64381;0.000;0.000;2023-07-13T02:38:57;3.28;;;1.80;;
75772;SDS011;64381;0.000;0.000;2023-07-13T02:41:25;4.77;;;1.70;;
75772;SDS011;64381;0.000;0.000;2023-07-13T02:43:50;3.50;;;1.70;;
75772;SDS011;64381;0.000;0.000;2023-07-13T02:46:16;3.60;;;1.70;;
75772;SDS011;64381;0.000;0.000;2023-07-13T02:48:41;3.60;;;2.00;;
75772;SDS011;64381;0.000;0.000;2023-07-13T02:51:06;3.50;;;1.70;;
75772;SDS011;64381;0.000;0.000;2023-07-13T02:53:32;3.97;;;1.80;;
75772;SDS011;64381;0.000;0.000;2023-07-13T02:55:57;3.40;;;1.60;;
75772;SDS011;64381;0.000;0.000;2023-07-13T02:58:22;3.40;;;1.73;;
75772;SDS011;64381;0.000;0.000;2023-07-13T03:00:48;3.57;;;1.67;;
75772;SDS011;64381;0.000;0.000;2023-07-13T03:03:14;3.38;;;1.80;;
75772;SDS011;64381;0.000;0.000;2023-07-13T03:05:41;3.50;;;1.77;;
75772;SDS011;64381;0.000;0.000;2023-07-13T03:08:09;3.20;;;1.58;;
75772;SDS011;64381;0.000;0.000;2023-07-13T03:10:34;3.63;;;1.67;;
75772;SDS011;64381;0.000;0.000;2023-07-13T03:13:00;3.43;;;1.60;;
75772;SDS011;64381;0.000;0.000;2023-07-13T03:15:26;3.73;;;1.90;;
75772;SDS011;64381;0.000;0.000;2023-07-13T03:17:51;3.47;;;1.50;;
75772;SDS011;64381;0.000;0.000;2023-07-13T03:20:17;3.20;;;1.60;;
75772;SDS011;64381;0.000;0.000;2023-07-13T03:22:42;3.40;;;1.87;;
75772;SDS011;64381;0.000;0.000;2023-07-13T03:25:08;4.15;;;2.00;;
75772;SDS011;64381;0.000;0.000;2023-07-13T03:27:33;3.10;;;1.60;;
75772;SDS011;64381;0.000;0.000;2023-07-13T03:29:58;3.40;;;1.70;;
75772;SDS011;64381;0.000;0.000;2023-07-13T03:32:23;3.43;;;1.80;;
75772;SDS011;64381;0.000;0.000;2023-07-13T03:34:49;3.50;;;1.80;;
75772;SDS011;64381;0.000;0.000;2023-07-13T03:37:14;3.03;;;1.50;;
75772;SDS011;64381;0.000;0.000;2023-07-13T03:39:39;3.30;;;1.80;;
75772;SDS011;64381;0.000;0.000;2023-07-13T03:42:05;4.50;;;1.60;;
75772;SDS011;64381;0.000;0.000;2023-07-13T03:44:30;4.38;;;1.80;;
75772;SDS011;64381;0.000;0.000;2023-07-13T03:46:56;3.93;;;1.50;;
75772;SDS011;64381;0.000;0.000;2023-07-13T03:49:21;3.90;;;2.00;;
75772;SDS011;64381;0.000;0.000;2023-07-13T03:51:46;3.30;;;1.60;;
75772;SDS011;64381;0.000;0.000;2023-07-13T03:54:11;3.97;;;1.53;;
75772;SDS011;64381;0.000;0.000;2023-07-13T03:56:36;3.30;;;1.70;;
75772;SDS011;64381;0.000;0.000;2023-07-13T03:59:02;4.00;;;1.63;;
75772;SDS011;64381;0.000;0.000;2023-07-13T04:01:27;3.53;;;1.73;;
75772;SDS011;64381;0.000;0.000;2023-07-13T04:03:52;3.83;;;1.70;;
75772;SDS011;64381;0.000;0.000;2023-07-13T04:06:21;3.63;;;1.80;;
75772;SDS011;64381;0.000;0.000;2023-07-13T04:08:49;3.80;;;1.73;;
75772;SDS011;64381;0.000;0.000;2023-07-13T04:11:19;3.92;;;1.80;;
75772;SDS011;64381;0.000;0.000;2023-07-13T04:13:45;3.45;;;1.70;;
75772;SDS011;64381;0.000;0.000;2023-07-13T04:16:11;3.73;;;1.90;;
75772;SDS011;64381;0.000;0.000;2023-07-13T04:18:36;4.33;;;2.00;;
75772;SDS011;64381;0.000;0.000;2023-07-13T04:21:01;4.33;;;1.70;;
75772;SDS011;64381;0.000;0.000;2023-07-13T04:23:27;4.20;;;2.00;;
75772;SDS011;64381;0.000;0.000;2023-07-13T04:25:52;2.97;;;1.48;;
75772;SDS011;64381;0.000;0.000;2023-07-13T04:28:21;3.20;;;1.70;;
75772;SDS011;64381;0.000;0.000;2023-07-13T04:30:48;4.20;;;1.90;;
75772;SDS011;64381;0.000;0.000;2023-07-13T04:33:13;4.07;;;1.87;;
75772;SDS011;64381;0.000;0.000;2023-07-13T04:35:38;5.33;;;2.07;;
75772;SDS011;64381;0.000;0.000;2023-07-13T04:38:04;3.67;;;1.60;;
75772;SDS011;64381;0.000;0.000;2023-07-13T04:40:29;4.07;;;1.80;;
75772;SDS011;64381;0.000;0.000;2023-07-13T04:42:54;3.33;;;1.60;;
75772;SDS011;64381;0.000;0.000;2023-07-13T04:45:20;3.30;;;1.67;;
75772;SDS011;64381;0.000;0.000;2023-07-13T04:47:45;3.50;;;1.70;;
75772;SDS011;64381;0.000;0.000;2023-07-13T04:50:12;3.33;;;1.73;;
75772;SDS011;64381;0.000;0.000;2023-07-13T04:52:38;3.50;;;1.80;;
75772;SDS011;64381;0.000;0.000;2023-07-13T04:55:03;3.97;;;1.83;;
75772;SDS011;64381;0.000;0.000;2023-07-13T04:57:29;3.13;;;1.53;;
75772;SDS011;64381;0.000;0.000;2023-07-13T04:59:54;4.27;;;1.80;;
75772;SDS011;64381;0.000;0.000;2023-07-13T05:02:20;4.07;;;1.80;;
75772;SDS011;64381;0.000;0.000;2023-07-13T05:04:46;3.40;;;1.90;;
75772;SDS011;64381;0.000;0.000;2023-07-13T05:07:12;3.75;;;1.70;;
75772;SDS011;64381;0.000;0.000;2023-07-13T05:09:37;3.67;;;1.70;;
75772;SDS011;64381;0.000;0.000;2023-07-13T05:12:02;3.57;;;1.73;;
75772;SDS011;64381;0.000;0.000;2023-07-13T05:14:27;3.67;;;1.80;;
75772;SDS011;64381;0.000;0.000;2023-07-13T05:16:53;3.80;;;1.90;;
75772;SDS011;64381;0.000;0.000;2023-07-13T05:19:18;3.60;;;1.80;;
75772;SDS011;64381;0.000;0.000;2023-07-13T05:21:43;4.37;;;1.90;;
75772;SDS011;64381;0.000;0.000;2023-07-13T05:24:08;5.63;;;1.80;;
75772;SDS011;64381;0.000;0.000;2023-07-13T05:26:33;5.00;;;1.93;;
75772;SDS011;64381;0.000;0.000;2023-07-13T05:28:59;4.27;;;1.80;;
75772;SDS011;64381;0.000;0.000;2023-07-13T05:31:24;3.50;;;2.00;;
75772;SDS011;64381;0.000;0.000;2023-07-13T05:33:49;3.93;;;1.93;;
75772;SDS011;64381;0.000;0.000;2023-07-13T05:36:14;3.97;;;1.80;;
75772;SDS011;64381;0.000;0.000;2023-07-13T05:38:40;5.17;;;2.00;;
75772;SDS011;64381;0.000;0.000;2023-07-13T05:41:06;4.13;;;1.60;;
75772;SDS011;64381;0.000;0.000;2023-07-13T05:43:31;4.32;;;2.00;;
75772;SDS011;64381;0.000;0.000;2023-07-13T05:45:56;4.03;;;1.93;;
75772;SDS011;64381;0.000;0.000;2023-07-13T05:48:22;3.60;;;2.07;;
75772;SDS011;64381;0.000;0.000;2023-07-13T05:50:47;3.80;;;1.88;;
75772;SDS011;64381;0.000;0.000;2023-07-13T05:53:13;3.73;;;1.90;;
75772;SDS011;64381;0.000;0.000;2023-07-13T05:55:42;3.23;;;1.70;;
75772;SDS011;64381;0.000;0.000;2023-07-13T05:58:08;3.53;;;2.00;;
75772;SDS011;64381;0.000;0.000;2023-07-13T06:00:34;3.77;;;1.80;;
75772;SDS011;64381;0.000;0.000;2023-07-13T06:02:59;3.93;;;1.80;;
75772;SDS011;64381;0.000;0.000;2023-07-13T06:05:24;4.00;;;1.90;;
75772;SDS011;64381;0.000;0.000;2023-07-13T06:07:49;4.10;;;1.90;;
75772;SDS011;64381;0.000;0.000;2023-07-13T06:10:15;3.47;;;1.73;;
75772;SDS011;64381;0.000;0.000;2023-07-13T06:12:40;3.80;;;2.00;;
75772;SDS011;64381;0.000;0.000;2023-07-13T06:15:05;4.05;;;1.70;;
75772;SDS011;64381;0.000;0.000;2023-07-13T06:17:31;3.30;;;1.73;;
75772;SDS011;64381;0.000;0.000;2023-07-13T06:19:56;3.20;;;1.63;;
75772;SDS011;64381;0.000;0.000;2023-07-13T06:22:22;4.37;;;1.90;;
75772;SDS011;64381;0.000;0.000;2023-07-13T06:24:47;3.30;;;1.63;;
75772;SDS011;64381;0.000;0.000;2023-07-13T06:27:12;3.97;;;1.63;;
75772;SDS011;64381;0.000;0.000;2023-07-13T06:29:37;3.60;;;1.60;;
75772;SDS011;64381;0.000;0.000;2023-07-13T06:32:02;3.73;;;1.80;;
75772;SDS011;64381;0.000;0.000;2023-07-13T06:34:28;3.40;;;1.52;;
75772;SDS011;64381;0.000;0.000;2023-07-13T06:36:53;3.40;;;1.70;;
75772;SDS011;64381;0.000;0.000;2023-07-13T06:39:18;3.50;;;1.60;;
75772;SDS011;64381;0.000;0.000;2023-07-13T06:41:44;4.27;;;1.80;;
75772;SDS011;64381;0.000;0.000;2023-07-13T06:44:09;3.60;;;1.70;;
75772;SDS011;64381;0.000;0.000;2023-07-13T06:46:34;3.83;;;1.67;;
75772;SDS011;64381;0.000;0.000;2023-07-13T06:48:59;3.40;;;1.60;;
75772;SDS011;64381;0.000;0.000;2023-07-13T06:51:25;3.97;;;1.80;;
75772;SDS011;64381;0.000;0.000;2023-07-13T06:53:50;4.03;;;1.77;;
75772;SDS011;64381;0.000;0.000;2023-07-13T06:56:15;3.40;;;1.67;;
75772;SDS011;64381;0.000;0.000;2023-07-13T06:58:43;3.22;;;1.60;;
75772;SDS011;64381;0.000;0.000;2023-07-13T07:01:09;3.50;;;1.73;;
75772;SDS011;64381;0.000;0.000;2023-07-13T07:03:34;4.30;;;1.70;;
75772;SDS011;64381;0.000;0.000;2023-07-13T07:06:07;4.28;;;1.90;;
75772;SDS011;64381;0.000;0.000;2023-07-13T07:08:43;3.30;;;1.50;;
75772;SDS011;64381;0.000;0.000;2023-07-13T07:11:11;3.73;;;1.57;;
75772;SDS011;64381;0.000;0.000;2023-07-13T07:13:38;3.53;;;1.70;;
75772;SDS011;64381;0.000;0.000;2023-07-13T07:16:03;3.53;;;1.70;;
75772;SDS011;64381;0.000;0.000;2023-07-13T07:18:28;3.53;;;1.77;;
75772;SDS011;64381;0.000;0.000;2023-07-13T07:20:54;4.33;;;1.63;;
75772;SDS011;64381;0.000;0.000;2023-07-13T07:23:19;2.70;;;1.30;;
75772;SDS011;64381;0.000;0.000;2023-07-13T07:25:44;4.33;;;1.97;;
75772;SDS011;64381;0.000;0.000;2023-07-13T07:28:09;3.30;;;1.60;;
75772;SDS011;64381;0.000;0.000;2023-07-13T07:30:35;3.30;;;1.70;;
75772;SDS011;64381;0.000;0.000;2023-07-13T07:33:00;4.07;;;1.90;;
75772;SDS011;64381;0.000;0.000;2023-07-13T07:35:25;3.43;;;1.60;;
75772;SDS011;64381;0.000;0.000;2023-07-13T07:37:51;3.87;;;1.53;;
75772;SDS011;64381;0.000;0.000;2023-07-13T07:40:16;4.27;;;2.13;;
75772;SDS011;64381;0.000;0.000;2023-07-13T07:42:41;3.43;;;1.77;;
75772;SDS011;64381;0.000;0.000;2023-07-13T07:45:07;3.83;;;1.63;;
75772;SDS011;64381;0.000;0.000;2023-07-13T07:47:32;3.22;;;1.80;;
75772;SDS011;64381;0.000;0.000;2023-07-13T07:49:57;3.67;;;1.70;;
75772;SDS011;64381;0.000;0.000;2023-07-13T07:52:22;3.53;;;1.73;;
75772;SDS011;64381;0.000;0.000;2023-07-13T07:54:48;4.07;;;1.63;;
75772;SDS011;64381;0.000;0.000;2023-07-13T07:57:13;3.00;;;1.50;;
75772;SDS011;64381;0.000;0.000;2023-07-13T07:59:39;3.33;;;1.63;;
75772;SDS011;64381;0.000;0.000;2023-07-13T08:02:04;3.80;;;1.70;;
75772;SDS011;64381;0.000;0.000;2023-07-13T08:04:30;3.63;;;1.60;;
75772;SDS011;64381;0.000;0.000;2023-07-13T08:06:55;3.10;;;1.57;;
75772;SDS011;64381;0.000;0.000;2023-07-13T08:09:20;3.17;;;1.63;;
75772;SDS011;64381;0.000;0.000;2023-07-13T08:11:46;3.20;;;1.70;;
75772;SDS011;64381;0.000;0.000;2023-07-13T08:14:11;3.60;;;1.70;;
75772;SDS011;64381;0.000;0.000;2023-07-13T08:16:36;3.40;;;1.53;;
75772;SDS011;64381;0.000;0.000;2023-07-13T08:19:02;3.67;;;1.90;;
75772;SDS011;64381;0.000;0.000;2023-07-13T08:21:27;3.60;;;1.60;;
75772;SDS011;64381;0.000;0.000;2023-07-13T08:23:52;2.90;;;1.50;;
75772;SDS011;64381;0.000;0.000;2023-07-13T08:26:18;3.07;;;1.50;;
75772;SDS011;64381;0.000;0.000;2023-07-13T08:28:43;3.23;;;1.43;;
75772;SDS011;64381;0.000;0.000;2023-07-13T08:31:08;3.87;;;1.67;;
75772;SDS011;64381;0.000;0.000;2023-07-13T08:33:35;3.15;;;1.55;;
75772;SDS011;64381;0.000;0.000;2023-07-13T08:36:01;3.20;;;1.50;;
75772;SDS011;64381;0.000;0.000;2023-07-13T08:38:26;3.30;;;1.40;;
75772;SDS011;64381;0.000;0.000;2023-07-13T08:40:53;3.80;;;1.70;;
75772;SDS011;64381;0.000;0.000;2023-07-13T08:43:22;3.10;;;1.40;;
75772;SDS011;64381;0.000;0.000;2023-07-13T08:46:13;3.55;;;1.50;;
75772;SDS011;64381;0.000;0.000;2023-07-13T08:49:03;3.20;;;1.60;;
75772;SDS011;64381;0.000;0.000;2023-07-13T08:51:44;3.40;;;1.60;;
75772;SDS011;64381;0.000;0.000;2023-07-13T08:54:29;2.97;;;1.50;;
75772;SDS011;64381;0.000;0.000;2023-07-13T08:56:58;3.50;;;1.40;;
75772;SDS011;64381;0.000;0.000;2023-07-13T08:59:27;3.28;;;1.60;;
75772;SDS011;64381;0.000;0.000;2023-07-13T09:02:17;3.43;;;1.53;;
75772;SDS011;64381;0.000;0.000;2023-07-13T09:04:48;3.95;;;1.58;;
75772;SDS011;64381;0.000;0.000;2023-07-13T09:12:45;3.15;;;1.40;;
75772;SDS011;64381;0.000;0.000;2023-07-13T09:15:27;3.20;;;1.60;;
75772;SDS011;64381;0.000;0.000;2023-07-13T09:17:55;2.83;;;1.40;;
75772;SDS011;64381;0.000;0.000;2023-07-13T09:20:29;3.10;;;1.50;;
75772;SDS011;64381;0.000;0.000;2023-07-13T09:22:59;3.95;;;1.50;;
75772;SDS011;64381;0.000;0.000;2023-07-13T09:28:41;3.70;;;1.53;;
75772;SDS011;64381;0.000;0.000;2023-07-13T09:33:25;3.45;;;1.55;;
75772;SDS011;64381;0.000;0.000;2023-07-13T09:35:50;3.17;;;1.80;;
75772;SDS011;64381;0.000;0.000;2023-07-13T09:38:17;3.57;;;1.60;;
75772;SDS011;64381;0.000;0.000;2023-07-13T09:43:38;3.70;;;1.50;;
75772;SDS011;64381;0.000;0.000;2023-07-13T09:46:03;3.40;;;1.50;;
75772;SDS011;64381;0.000;0.000;2023-07-13T09:48:34;3.60;;;1.60;;
75772;SDS011;64381;0.000;0.000;2023-07-13T09:51:04;4.07;;;1.58;;
75772;SDS011;64381;0.000;0.000;2023-07-13T09:53:37;3.40;;;1.70;;
75772;SDS011;64381;0.000;0.000;2023-07-13T09:56:03;3.20;;;1.40;;
75772;SDS011;64381;0.000;0.000;2023-07-13T09:58:29;8.60;;;2.13;;
75772;SDS011;64381;0.000;0.000;2023-07-13T10:00:57;12.87;;;2.60;;
75772;SDS011;64381;0.000;0.000;2023-07-13T10:03:30;34.22;;;4.10;;
75772;SDS011;64381;0.000;0.000;2023-07-13T10:06:16;21.33;;;2.97;;
75772;SDS011;64381;0.000;0.000;2023-07-13T10:08:44;22.75;;;3.17;;
75772;SDS011;64381;0.000;0.000;2023-07-13T10:13:54;17.95;;;2.53;;
75772;SDS011;64381;0.000;0.000;2023-07-13T10:16:38;14.15;;;2.70;;
75772;SDS011;64381;0.000;0.000;2023-07-13T10:19:15;16.65;;;2.08;;
75772;SDS011;64381;0.000;0.000;2023-07-13T10:21:57;15.90;;;2.70;;
75772;SDS011;64381;0.000;0.000;2023-07-13T10:24:26;8.85;;;2.15;;
75772;SDS011;64381;0.000;0.000;2023-07-13T10:27:15;13.47;;;2.13;;
75772;SDS011;64381;0.000;0.000;2023-07-13T10:29:44;11.73;;;2.38;;
75772;SDS011;64381;0.000;0.000;2023-07-13T10:32:12;13.25;;;2.75;;
75772;SDS011;64381;0.000;0.000;2023-07-13T10:34:38;9.80;;;2.13;;
75772;SDS011;64381;0.000;0.000;2023-07-13T10:37:05;7.15;;;1.85;;
75772;SDS011;64381;0.000;0.000;2023-07-13T10:39:39;10.07;;;2.08;;
75772;SDS011;64381;0.000;0.000;2023-07-13T10:42:06;12.73;;;2.00;;
75772;SDS011;64381;0.000;0.000;2023-07-13T10:44:37;9.93;;;2.25;;
75772;SDS011;64381;0.000;0.000;2023-07-13T10:47:03;9.20;;;2.13;;
75772;SDS011;64381;0.000;0.000;2023-07-13T10:49:32;11.05;;;2.45;;
75772;SDS011;64381;0.000;0.000;2023-07-13T10:51:59;9.70;;;2.20;;
75772;SDS011;64381;0.000;0.000;2023-07-13T10:56:53;7.38;;;1.70;;
75772;SDS011;64381;0.000;0.000;2023-07-13T10:59:33;11.02;;;2.17;;
75772;SDS011;64381;0.000;0.000;2023-07-13T11:04:27;6.15;;;1.85;;
75772;SDS011;64381;0.000;0.000;2023-07-13T11:06:58;7.47;;;2.10;;
75772;SDS011;64381;0.000;0.000;2023-07-13T11:09:33;10.45;;;2.00;;
75772;SDS011;64381;0.000;0.000;2023-07-13T11:14:42;6.78;;;2.00;;
75772;SDS011;64381;0.000;0.000;2023-07-13T11:20:08;5.73;;;1.97;;
75772;SDS011;64381;0.000;0.000;2023-07-13T11:22:41;6.63;;;2.10;;
75772;SDS011;64381;0.000;0.000;2023-07-13T11:27:50;9.13;;;2.42;;
75772;SDS011;64381;0.000;0.000;2023-07-13T11:35:35;7.15;;;2.10;;
75772;SDS011;64381;0.000;0.000;2023-07-13T11:38:02;6.72;;;1.92;;
75772;SDS011;64381;0.000;0.000;2023-07-13T11:40:28;7.45;;;2.30;;
75772;SDS011;64381;0.000;0.000;2023-07-13T11:43:01;6.32;;;1.90;;
75772;SDS011;64381;0.000;0.000;2023-07-13T11:45:30;7.23;;;2.07;;
75772;SDS011;64381;0.000;0.000;2023-07-13T11:47:56;5.10;;;2.17;;
75772;SDS011;64381;0.000;0.000;2023-07-13T11:50:22;6.77;;;1.97;;
75772;SDS011;64381;0.000;0.000;2023-07-13T11:52:49;5.93;;;2.00;;
75772;SDS011;64381;0.000;0.000;2023-07-13T11:55:17;7.97;;;2.33;;
75772;SDS011;64381;0.000;0.000;2023-07-13T11:57:57;10.95;;;3.33;;
75772;SDS011;64381;0.000;0.000;2023-07-13T12:00:25;9.18;;;3.42;;
75772;SDS011;64381;0.000;0.000;2023-07-13T12:02:54;8.17;;;3.70;;
75772;SDS011;64381;0.000;0.000;2023-07-13T12:05:22;8.85;;;3.70;;
75772;SDS011;64381;0.000;0.000;2023-07-13T12:07:47;10.70;;;4.00;;
75772;SDS011;64381;0.000;0.000;2023-07-13T12:12:47;12.60;;;5.20;;
75772;SDS011;64381;0.000;0.000;2023-07-13T12:15:13;13.15;;;4.97;;
75772;SDS011;64381;0.000;0.000;2023-07-13T12:17:39;12.37;;;4.90;;
75772;SDS011;64381;0.000;0.000;2023-07-13T12:22:49;13.02;;;5.85;;
75772;SDS011;64381;0.000;0.000;2023-07-13T12:25:16;13.03;;;5.60;;
75772;SDS011;64381;0.000;0.000;2023-07-13T12:27:42;16.92;;;6.10;;
75772;SDS011;64381;0.000;0.000;2023-07-13T12:30:23;18.58;;;6.25;;
75772;SDS011;64381;0.000;0.000;2023-07-13T12:32:58;14.27;;;5.68;;
75772;SDS011;64381;0.000;0.000;2023-07-13T12:35:24;18.10;;;6.47;;
75772;SDS011;64381;0.000;0.000;2023-07-13T12:37:52;16.53;;;8.50;;
75772;SDS011;64381;0.000;0.000;2023-07-13T12:40:18;20.17;;;9.83;;
75772;SDS011;64381;0.000;0.000;2023-07-13T12:42:46;20.88;;;8.93;;
75772;SDS011;64381;0.000;0.000;2023-07-13T12:45:20;19.67;;;9.15;;
75772;SDS011;64381;0.000;0.000;2023-07-13T12:47:48;20.52;;;9.10;;
75772;SDS011;64381;0.000;0.000;2023-07-13T12:50:19;17.05;;;8.20;;
75772;SDS011;64381;0.000;0.000;2023-07-13T12:52:51;17.10;;;8.70;;
75772;SDS011;64381;0.000;0.000;2023-07-13T12:55:26;18.63;;;8.20;;
75772;SDS011;64381;0.000;0.000;2023-07-13T12:57:53;17.08;;;9.18;;
75772;SDS011;64381;0.000;0.000;2023-07-13T13:02:57;17.08;;;8.00;;
75772;SDS011;64381;0.000;0.000;2023-07-13T13:05:26;17.97;;;7.83;;
75772;SDS011;64381;0.000;0.000;2023-07-13T13:07:51;16.52;;;8.18;;
75772;SDS011;64381;0.000;0.000;2023-07-13T13:10:17;20.67;;;8.37;;
75772;SDS011;64381;0.000;0.000;2023-07-13T13:12:42;17.63;;;9.17;;
75772;SDS011;64381;0.000;0.000;2023-07-13T13:15:08;18.37;;;8.10;;
75772;SDS011;64381;0.000;0.000;2023-07-13T13:17:34;17.48;;;8.63;;
75772;SDS011;64381;0.000;0.000;2023-07-13T13:20:00;15.47;;;7.90;;
75772;SDS011;64381;0.000;0.000;2023-07-13T13:22:25;16.33;;;8.27;;
75772;SDS011;64381;0.000;0.000;2023-07-13T13:24:50;17.87;;;8.43;;
75772;SDS011;64381;0.000;0.000;2023-07-13T13:27:19;15.73;;;7.97;;
75772;SDS011;64381;0.000;0.000;2023-07-13T13:29:49;16.15;;;7.82;;
75772;SDS011;64381;0.000;0.000;2023-07-13T13:32:15;14.30;;;7.90;;
75772;SDS011;64381;0.000;0.000;2023-07-13T13:34:41;18.77;;;8.20;;
75772;SDS011;64381;0.000;0.000;2023-07-13T13:37:17;15.40;;;7.40;;
75772;SDS011;64381;0.000;0.000;2023-07-13T13:39:44;14.00;;;7.55;;
75772;SDS011;64381;0.000;0.000;2023-07-13T13:42:11;13.90;;;7.47;;
75772;SDS011;64381;0.000;0.000;2023-07-13T13:44:36;13.90;;;7.27;;
75772;SDS011;64381;0.000;0.000;2023-07-13T13:47:01;15.27;;;7.53;;
75772;SDS011;64381;0.000;0.000;2023-07-13T13:49:27;13.32;;;7.15;;
75772;SDS011;64381;0.000;0.000;2023-07-13T13:51:54;14.65;;;7.97;;
75772;SDS011;64381;0.000;0.000;2023-07-13T13:54:20;16.77;;;7.30;;
75772;SDS011;64381;0.000;0.000;2023-07-13T13:56:48;14.63;;;6.93;;
75772;SDS011;64381;0.000;0.000;2023-07-13T13:59:15;13.48;;;6.72;;
75772;SDS011;64381;0.000;0.000;2023-07-13T14:01:44;14.53;;;7.27;;
75772;SDS011;64381;0.000;0.000;2023-07-13T14:04:20;14.95;;;7.50;;
75772;SDS011;64381;0.000;0.000;2023-07-13T14:06:46;14.70;;;7.15;;
75772;SDS011;64381;0.000;0.000;2023-07-13T14:09:12;16.13;;;7.43;;
75772;SDS011;64381;0.000;0.000;2023-07-13T14:11:39;14.07;;;7.20;;
75772;SDS011;64381;0.000;0.000;2023-07-13T14:14:07;15.60;;;6.80;;
75772;SDS011;64381;0.000;0.000;2023-07-13T14:16:36;13.98;;;6.90;;
75772;SDS011;64381;0.000;0.000;2023-07-13T14:19:01;15.47;;;7.47;;
75772;SDS011;64381;0.000;0.000;2023-07-13T14:21:27;15.03;;;7.03;;
75772;SDS011;64381;0.000;0.000;2023-07-13T14:23:56;13.43;;;6.80;;
75772;SDS011;64381;0.000;0.000;2023-07-13T14:26:23;12.65;;;6.72;;
75772;SDS011;64381;0.000;0.000;2023-07-13T14:28:51;14.20;;;7.00;;
75772;SDS011;64381;0.000;0.000;2023-07-13T14:31:21;13.68;;;7.30;;
75772;SDS011;64381;0.000;0.000;2023-07-13T14:33:48;11.75;;;6.50;;
75772;SDS011;64381;0.000;0.000;2023-07-13T14:36:31;12.80;;;6.43;;
75772;SDS011;64381;0.000;0.000;2023-07-13T14:38:58;15.90;;;6.90;;
75772;SDS011;64381;0.000;0.000;2023-07-13T14:41:25;11.77;;;6.45;;
75772;SDS011;64381;0.000;0.000;2023-07-13T14:43:52;15.38;;;6.90;;
75772;SDS011;64381;0.000;0.000;2023-07-13T14:46:28;13.67;;;6.37;;
75772;SDS011;64381;0.000;0.000;2023-07-13T14:48:59;13.35;;;6.75;;
75772;SDS011;64381;0.000;0.000;2023-07-13T14:51:27;12.52;;;6.50;;
75772;SDS011;64381;0.000;0.000;2023-07-13T14:53:52;12.90;;;6.30;;
75772;SDS011;64381;0.000;0.000;2023-07-13T14:56:17;13.80;;;6.70;;
75772;SDS011;64381;0.000;0.000;2023-07-13T14:58:42;12.00;;;5.93;;
75772;SDS011;64381;0.000;0.000;2023-07-13T15:01:12;14.03;;;6.33;;
75772;SDS011;64381;0.000;0.000;2023-07-13T15:03:40;13.80;;;6.78;;
75772;SDS011;64381;0.000;0.000;2023-07-13T15:06:09;13.70;;;6.47;;
75772;SDS011;64381;0.000;0.000;2023-07-13T15:08:36;12.25;;;6.32;;
75772;SDS011;64381;0.000;0.000;2023-07-13T15:11:01;11.07;;;6.10;;
75772;SDS011;64381;0.000;0.000;2023-07-13T15:13:27;11.27;;;5.80;;
75772;SDS011;64381;0.000;0.000;2023-07-13T15:15:52;11.97;;;6.13;;
75772;SDS011;64381;0.000;0.000;2023-07-13T15:18:19;12.40;;;6.22;;
75772;SDS011;64381;0.000;0.000;2023-07-13T15:20:47;12.23;;;6.60;;
75772;SDS011;64381;0.000;0.000;2023-07-13T15:23:14;11.02;;;5.35;;
75772;SDS011;64381;0.000;0.000;2023-07-13T15:25:42;10.85;;;6.28;;
75772;SDS011;64381;0.000;0.000;2023-07-13T15:28:08;10.97;;;5.70;;
75772;SDS011;64381;0.000;0.000;2023-07-13T15:30:43;13.27;;;5.63;;
75772;SDS011;64381;0.000;0.000;2023-07-13T15:33:29;10.18;;;4.78;;
75772;SDS011;64381;0.000;0.000;2023-07-13T15:35:55;10.45;;;5.22;;
75772;SDS011;64381;0.000;0.000;2023-07-13T15:38:25;10.10;;;5.72;;
75772;SDS011;64381;0.000;0.000;2023-07-13T15:40:53;8.87;;;4.90;;
75772;SDS011;64381;0.000;0.000;2023-07-13T15:43:19;9.60;;;5.20;;